sensor_id;sensor_type;location;lat;lon;timestamp;pressure;altitude;pressure_sealevel;temperature;humidity
21185;BME280;18176;49.502;11.754;2022-12-10T00:03:46;95669.50;;;8.07;50.99
21185;BME280;18176;49.502;11.754;2022-12-10T00:07:47;95703.06;;;8.28;50.90
21185;BME280;18176;49.502;11.754;2022-12-10T00:11:50;95692.78;;;8.32;50.73
21185;BME280;18176;49.502;11.754;2022-12-10T00:15:50;95702.13;;;8.39;50.99
21185;BME280;18176;49.502;11.754;2022-12-10T00:19:50;95708.75;;;8.42;51.00
21185;BME280;18176;49.502;11.754;2022-12-10T00:23:50;95702.53;;;8.31;51.17
21185;BME280;18176;49.502;11.754;2022-12-10T00:27:53;95710.84;;;8.40;51.13
21185;BME280;18176;49.502;11.754;2022-12-10T00:31:53;95714.91;;;8.26;51.38
21185;BME280;18176;49.502;11.754;2022-12-10T00:35:53;95707.06;;;8.14;51.65
21185;BME280;18176;49.502;11.754;2022-12-10T00:39:53;95690.97;;;7.94;51.66
21185;BME280;18176;49.502;11.754;2022-12-10T00:43:57;95701.38;;;7.84;51.88
21185;BME280;18176;49.502;11.754;2022-12-10T00:47:57;95701.22;;;7.74;52.63
21185;BME280;18176;49.502;11.754;2022-12-10T00:51:57;95709.38;;;7.72;52.69
21185;BME280;18176;49.502;11.754;2022-12-10T00:56:00;95713.66;;;7.78;52.23
21185;BME280;18176;49.502;11.754;2022-12-10T01:00:06;95708.81;;;7.70;52.77
21185;BME280;18176;49.502;11.754;2022-12-10T01:04:09;95699.09;;;7.54;53.20
21185;BME280;18176;49.502;11.754;2022-12-10T01:08:10;95715.69;;;7.38;53.62
21185;BME280;18176;49.502;11.754;2022-12-10T01:12:10;95724.94;;;7.24;53.62
21185;BME280;18176;49.502;11.754;2022-12-10T01:16:16;95725.47;;;7.09;54.27
21185;BME280;18176;49.502;11.754;2022-12-10T01:20:17;95733.56;;;7.20;54.13
21185;BME280;18176;49.502;11.754;2022-12-10T01:24:18;95733.03;;;7.34;54.11
21185;BME280;18176;49.502;11.754;2022-12-10T01:28:18;95726.78;;;7.40;53.92
21185;BME280;18176;49.502;11.754;2022-12-10T01:32:20;95742.53;;;7.52;53.86
21185;BME280;18176;49.502;11.754;2022-12-10T01:36:25;95745.31;;;7.78;53.45
21185;BME280;18176;49.502;11.754;2022-12-10T01:40:25;95750.56;;;7.78;53.12
21185;BME280;18176;49.502;11.754;2022-12-10T01:45:06;95747.94;;;7.78;53.12
21185;BME280;18176;49.502;11.754;2022-12-10T01:49:14;95754.09;;;8.01;52.92
21185;BME280;18176;49.502;11.754;2022-12-10T01:53:15;95754.09;;;8.01;52.63
21185;BME280;18176;49.502;11.754;2022-12-10T01:57:18;95771.19;;;8.15;52.71
21185;BME280;18176;49.502;11.754;2022-12-10T02:01:28;95778.84;;;8.33;52.37
21185;BME280;18176;49.502;11.754;2022-12-10T02:05:41;95772.59;;;8.39;52.14
21185;BME280;18176;49.502;11.754;2022-12-10T02:09:47;95767.31;;;8.39;52.31
21185;BME280;18176;49.502;11.754;2022-12-10T02:13:58;95763.50;;;8.30;52.06
21185;BME280;18176;49.502;11.754;2022-12-10T02:18:08;95773.13;;;8.41;52.00
21185;BME280;18176;49.502;11.754;2022-12-10T02:22:16;95764.75;;;8.44;51.61
21185;BME280;18176;49.502;11.754;2022-12-10T02:26:26;95775.28;;;8.44;51.62
21185;BME280;18176;49.502;11.754;2022-12-10T02:30:34;95764.81;;;8.49;51.87
21185;BME280;18176;49.502;11.754;2022-12-10T02:34:43;95767.06;;;8.62;51.22
21185;BME280;18176;49.502;11.754;2022-12-10T02:38:49;95768.72;;;8.68;51.00
21185;BME280;18176;49.502;11.754;2022-12-10T02:42:53;95779.53;;;8.67;51.35
21185;BME280;18176;49.502;11.754;2022-12-10T02:46:58;95758.19;;;8.46;51.36
21185;BME280;18176;49.502;11.754;2022-12-10T02:51:05;95761.38;;;8.48;51.25
21185;BME280;18176;49.502;11.754;2022-12-10T02:55:11;95741.72;;;8.39;51.24
21185;BME280;18176;49.502;11.754;2022-12-10T02:59:21;95765.78;;;8.43;51.33
21185;BME280;18176;49.502;11.754;2022-12-10T03:03:38;95714.16;;;8.14;51.58
21185;BME280;18176;49.502;11.754;2022-12-10T03:07:50;95752.03;;;8.41;51.37
21185;BME280;18176;49.502;11.754;2022-12-10T03:11:59;95766.81;;;8.42;51.70
21185;BME280;18176;49.502;11.754;2022-12-10T03:16:05;95768.28;;;8.55;51.49
21185;BME280;18176;49.502;11.754;2022-12-10T03:20:13;95756.72;;;8.56;51.43
21185;BME280;18176;49.502;11.754;2022-12-10T03:24:15;95756.34;;;8.47;51.66
21185;BME280;18176;49.502;11.754;2022-12-10T03:28:19;95701.91;;;8.24;51.55
21185;BME280;18176;49.502;11.754;2022-12-10T03:32:22;95748.53;;;8.57;51.46
21185;BME280;18176;49.502;11.754;2022-12-10T03:36:27;95753.59;;;8.59;51.43
21185;BME280;18176;49.502;11.754;2022-12-10T03:40:29;95760.19;;;8.61;51.04
21185;BME280;18176;49.502;11.754;2022-12-10T03:44:31;95761.31;;;8.65;51.12
21185;BME280;18176;49.502;11.754;2022-12-10T03:48:31;95762.34;;;8.64;51.01
21185;BME280;18176;49.502;11.754;2022-12-10T03:52:34;95753.00;;;8.57;50.99
21185;BME280;18176;49.502;11.754;2022-12-10T03:56:35;95762.72;;;8.73;50.60
21185;BME280;18176;49.502;11.754;2022-12-10T04:00:35;95754.75;;;8.68;50.65
21185;BME280;18176;49.502;11.754;2022-12-10T04:04:36;95758.47;;;8.72;50.54
21185;BME280;18176;49.502;11.754;2022-12-10T04:08:39;95690.97;;;8.32;50.53
21185;BME280;18176;49.502;11.754;2022-12-10T04:12:39;95747.66;;;8.73;50.57
21185;BME280;18176;49.502;11.754;2022-12-10T04:16:40;95740.47;;;8.69;50.55
21185;BME280;18176;49.502;11.754;2022-12-10T04:20:38;95723.84;;;8.68;50.50
21185;BME280;18176;49.502;11.754;2022-12-10T04:24:53;95730.25;;;8.72;50.69
21185;BME280;18176;49.502;11.754;2022-12-10T04:29:21;95740.97;;;8.66;50.82
21185;BME280;18176;49.502;11.754;2022-12-10T04:33:21;95739.88;;;8.62;50.98
21185;BME280;18176;49.502;11.754;2022-12-10T04:37:24;95736.44;;;8.61;51.01
21185;BME280;18176;49.502;11.754;2022-12-10T04:41:27;95726.72;;;8.45;51.16
21185;BME280;18176;49.502;11.754;2022-12-10T04:45:27;95744.34;;;8.61;51.10
21185;BME280;18176;49.502;11.754;2022-12-10T04:49:27;95748.53;;;8.57;51.15
21185;BME280;18176;49.502;11.754;2022-12-10T04:53:28;95749.53;;;8.51;51.28
21185;BME280;18176;49.502;11.754;2022-12-10T04:57:31;95750.47;;;8.45;51.47
21185;BME280;18176;49.502;11.754;2022-12-10T05:01:32;95750.81;;;8.48;51.39
21185;BME280;18176;49.502;11.754;2022-12-10T05:05:34;95746.53;;;8.42;51.36
21185;BME280;18176;49.502;11.754;2022-12-10T05:09:34;95727.03;;;8.27;51.34
21185;BME280;18176;49.502;11.754;2022-12-10T05:13:37;95727.97;;;8.21;51.60
21185;BME280;18176;49.502;11.754;2022-12-10T05:17:38;95738.72;;;8.31;51.68
21185;BME280;18176;49.502;11.754;2022-12-10T05:21:39;95753.97;;;8.29;51.82
21185;BME280;18176;49.502;11.754;2022-12-10T05:25:59;95726.34;;;8.15;51.90
21185;BME280;18176;49.502;11.754;2022-12-10T05:30:02;95754.00;;;8.12;52.38
21185;BME280;18176;49.502;11.754;2022-12-10T05:34:03;95745.13;;;8.02;52.70
21185;BME280;18176;49.502;11.754;2022-12-10T05:38:05;95748.47;;;8.14;52.49
21185;BME280;18176;49.502;11.754;2022-12-10T05:42:07;95760.03;;;8.29;52.17
21185;BME280;18176;49.502;11.754;2022-12-10T05:46:13;95764.25;;;8.47;51.96
21185;BME280;18176;49.502;11.754;2022-12-10T05:50:14;95768.06;;;8.56;51.87
21185;BME280;18176;49.502;11.754;2022-12-10T05:54:14;95776.88;;;8.45;51.86
21185;BME280;18176;49.502;11.754;2022-12-10T05:58:15;95770.63;;;8.51;51.76
21185;BME280;18176;49.502;11.754;2022-12-10T06:02:18;95772.72;;;8.49;51.82
21185;BME280;18176;49.502;11.754;2022-12-10T06:06:22;95754.66;;;8.41;51.61
21185;BME280;18176;49.502;11.754;2022-12-10T06:10:23;95756.28;;;8.42;51.57
21185;BME280;18176;49.502;11.754;2022-12-10T06:14:23;95693.34;;;7.96;51.70
21185;BME280;18176;49.502;11.754;2022-12-10T06:18:26;95760.94;;;8.35;52.24
21185;BME280;18176;49.502;11.754;2022-12-10T06:22:26;95765.38;;;8.51;51.95
21185;BME280;18176;49.502;11.754;2022-12-10T06:26:26;95779.28;;;8.68;52.02
21185;BME280;18176;49.502;11.754;2022-12-10T06:30:26;95782.44;;;8.65;52.02
21185;BME280;18176;49.502;11.754;2022-12-10T06:34:29;95784.47;;;8.58;52.21
21185;BME280;18176;49.502;11.754;2022-12-10T06:38:29;95774.31;;;8.50;52.03
21185;BME280;18176;49.502;11.754;2022-12-10T06:42:29;95779.00;;;8.65;51.86
21185;BME280;18176;49.502;11.754;2022-12-10T06:46:29;95761.66;;;8.52;51.65
21185;BME280;18176;49.502;11.754;2022-12-10T06:50:32;95797.28;;;8.71;51.85
21185;BME280;18176;49.502;11.754;2022-12-10T06:54:33;95758.69;;;8.27;52.03
21185;BME280;18176;49.502;11.754;2022-12-10T06:58:34;95796.78;;;8.53;51.96
21185;BME280;18176;49.502;11.754;2022-12-10T07:02:37;95783.28;;;8.49;52.15
21185;BME280;18176;49.502;11.754;2022-12-10T07:06:40;95787.44;;;8.45;52.37
21185;BME280;18176;49.502;11.754;2022-12-10T07:10:40;95786.84;;;8.38;52.67
21185;BME280;18176;49.502;11.754;2022-12-10T07:14:40;95766.53;;;8.22;52.62
21185;BME280;18176;49.502;11.754;2022-12-10T07:18:41;95785.38;;;8.47;52.56
21185;BME280;18176;49.502;11.754;2022-12-10T07:22:50;95779.94;;;8.20;52.97
21185;BME280;18176;49.502;11.754;2022-12-10T07:26:50;95797.44;;;8.43;52.97
21185;BME280;18176;49.502;11.754;2022-12-10T07:30:51;95803.91;;;8.52;52.94
21185;BME280;18176;49.502;11.754;2022-12-10T07:34:51;95795.56;;;8.60;52.77
21185;BME280;18176;49.502;11.754;2022-12-10T07:38:55;95808.34;;;8.68;52.44
21185;BME280;18176;49.502;11.754;2022-12-10T07:42:57;95818.03;;;8.84;52.31
21185;BME280;18176;49.502;11.754;2022-12-10T07:46:57;95826.03;;;8.89;52.18
21185;BME280;18176;49.502;11.754;2022-12-10T07:50:58;95830.16;;;9.02;51.79
21185;BME280;18176;49.502;11.754;2022-12-10T07:55:01;95820.88;;;8.99;51.99
21185;BME280;18176;49.502;11.754;2022-12-10T07:59:02;95831.50;;;9.04;51.97
21185;BME280;18176;49.502;11.754;2022-12-10T08:03:02;95825.28;;;9.15;51.57
21185;BME280;18176;49.502;11.754;2022-12-10T08:07:02;95793.47;;;9.05;51.52
21185;BME280;18176;49.502;11.754;2022-12-10T08:11:05;95817.97;;;9.23;50.90
21185;BME280;18176;49.502;11.754;2022-12-10T08:15:07;95830.88;;;9.19;51.05
21185;BME280;18176;49.502;11.754;2022-12-10T08:19:08;95812.41;;;8.97;51.37
21185;BME280;18176;49.502;11.754;2022-12-10T08:23:17;95831.06;;;9.12;51.00
21185;BME280;18176;49.502;11.754;2022-12-10T08:27:20;95782.69;;;8.85;51.05
21185;BME280;18176;49.502;11.754;2022-12-10T08:31:22;95847.66;;;9.30;50.87
21185;BME280;18176;49.502;11.754;2022-12-10T08:35:23;95841.06;;;9.32;50.93
21185;BME280;18176;49.502;11.754;2022-12-10T08:39:23;95843.88;;;9.47;50.86
21185;BME280;18176;49.502;11.754;2022-12-10T08:43:25;95841.28;;;9.52;50.44
21185;BME280;18176;49.502;11.754;2022-12-10T08:47:26;95835.59;;;9.39;50.16
21185;BME280;18176;49.502;11.754;2022-12-10T08:51:27;95838.09;;;9.50;50.00
21185;BME280;18176;49.502;11.754;2022-12-10T08:55:27;95833.63;;;9.56;49.74
21185;BME280;18176;49.502;11.754;2022-12-10T08:59:30;95869.31;;;9.80;49.64
21185;BME280;18176;49.502;11.754;2022-12-10T09:03:30;95857.66;;;9.76;49.55
21185;BME280;18176;49.502;11.754;2022-12-10T09:07:30;95862.41;;;9.79;49.59
21185;BME280;18176;49.502;11.754;2022-12-10T09:11:33;95869.91;;;9.87;49.32
21185;BME280;18176;49.502;11.754;2022-12-10T09:15:36;95869.31;;;9.80;49.46
21185;BME280;18176;49.502;11.754;2022-12-10T09:19:36;95836.66;;;9.69;49.33
21185;BME280;18176;49.502;11.754;2022-12-10T09:23:37;95860.63;;;9.84;48.93
21185;BME280;18176;49.502;11.754;2022-12-10T09:27:37;95834.19;;;9.84;48.52
21185;BME280;18176;49.502;11.754;2022-12-10T09:31:40;95849.41;;;9.99;48.58
21185;BME280;18176;49.502;11.754;2022-12-10T09:35:41;95846.34;;;10.12;48.79
21185;BME280;18176;49.502;11.754;2022-12-10T09:39:41;95844.91;;;10.31;48.33
21185;BME280;18176;49.502;11.754;2022-12-10T09:43:48;95843.88;;;10.37;48.19
21185;BME280;18176;49.502;11.754;2022-12-10T09:48:01;95837.03;;;10.41;47.89
21185;BME280;18176;49.502;11.754;2022-12-10T09:52:09;95838.88;;;10.41;47.45
21185;BME280;18176;49.502;11.754;2022-12-10T09:56:18;95835.94;;;10.37;47.58
21185;BME280;18176;49.502;11.754;2022-12-10T10:00:26;95825.97;;;10.54;47.65
21185;BME280;18176;49.502;11.754;2022-12-10T10:04:31;95829.25;;;10.72;46.88
21185;BME280;18176;49.502;11.754;2022-12-10T10:08:36;95824.56;;;10.84;46.13
21185;BME280;18176;49.502;11.754;2022-12-10T10:12:40;95821.47;;;11.07;46.35
21185;BME280;18176;49.502;11.754;2022-12-10T10:16:45;95813.53;;;11.17;45.93
21185;BME280;18176;49.502;11.754;2022-12-10T10:20:50;95806.31;;;11.89;45.09
21185;BME280;18176;49.502;11.754;2022-12-10T10:24:50;95808.22;;;13.03;43.14
21185;BME280;18176;49.502;11.754;2022-12-10T10:28:57;95778.00;;;12.74;42.06
21185;BME280;18176;49.502;11.754;2022-12-10T10:33:08;95821.00;;;13.06;42.12
21185;BME280;18176;49.502;11.754;2022-12-10T10:37:21;95828.50;;;12.74;42.28
21185;BME280;18176;49.502;11.754;2022-12-10T10:41:24;95846.63;;;12.57;42.96
21185;BME280;18176;49.502;11.754;2022-12-10T10:45:39;95854.06;;;12.30;43.01
21185;BME280;18176;49.502;11.754;2022-12-10T10:49:44;95847.19;;;12.04;43.30
21185;BME280;18176;49.502;11.754;2022-12-10T10:53:49;95856.19;;;12.03;43.48
21185;BME280;18176;49.502;11.754;2022-12-10T10:57:52;95849.81;;;11.93;43.91
21185;BME280;18176;49.502;11.754;2022-12-10T11:01:54;95828.06;;;11.91;44.06
21185;BME280;18176;49.502;11.754;2022-12-10T11:05:59;95817.44;;;11.81;44.32
21185;BME280;18176;49.502;11.754;2022-12-10T11:10:03;95814.78;;;11.91;43.70
21185;BME280;18176;49.502;11.754;2022-12-10T11:14:24;95813.19;;;11.75;44.18
21185;BME280;18176;49.502;11.754;2022-12-10T11:18:33;95778.63;;;11.50;44.07
21185;BME280;18176;49.502;11.754;2022-12-10T11:22:34;95818.44;;;11.55;44.54
21185;BME280;18176;49.502;11.754;2022-12-10T11:26:57;95806.75;;;11.51;44.27
21185;BME280;18176;49.502;11.754;2022-12-10T11:31:21;95781.75;;;11.12;44.70
21185;BME280;18176;49.502;11.754;2022-12-10T11:35:38;95808.78;;;11.19;44.83
21185;BME280;18176;49.502;11.754;2022-12-10T11:40:23;95827.94;;;11.41;44.96
21185;BME280;18176;49.502;11.754;2022-12-10T11:44:46;95816.28;;;11.47;44.32
21185;BME280;18176;49.502;11.754;2022-12-10T11:49:07;95788.13;;;11.26;44.39
21185;BME280;18176;49.502;11.754;2022-12-10T11:53:44;95781.41;;;10.98;44.64
21185;BME280;18176;49.502;11.754;2022-12-10T11:58:09;95802.91;;;11.02;45.43
21185;BME280;18176;49.502;11.754;2022-12-10T12:07:39;95789.03;;;10.80;45.97
21185;BME280;18176;49.502;11.754;2022-12-10T12:12:01;95692.94;;;10.32;45.58
21185;BME280;18176;49.502;11.754;2022-12-10T12:16:13;95775.25;;;10.73;45.52
21185;BME280;18176;49.502;11.754;2022-12-10T12:20:23;95827.78;;;10.91;45.75
21185;BME280;18176;49.502;11.754;2022-12-10T12:24:34;95819.16;;;10.69;45.79
21185;BME280;18176;49.502;11.754;2022-12-10T12:28:41;95777.59;;;10.22;46.24
21185;BME280;18176;49.502;11.754;2022-12-10T12:32:53;95830.16;;;10.45;46.72
21185;BME280;18176;49.502;11.754;2022-12-10T12:36:57;95832.03;;;10.50;46.81
21185;BME280;18176;49.502;11.754;2022-12-10T12:41:04;95827.13;;;10.64;46.60
21185;BME280;18176;49.502;11.754;2022-12-10T12:45:14;95811.16;;;10.53;46.44
21185;BME280;18176;49.502;11.754;2022-12-10T12:49:23;95787.75;;;10.35;46.63
21185;BME280;18176;49.502;11.754;2022-12-10T12:53:27;95814.72;;;10.32;46.88
21185;BME280;18176;49.502;11.754;2022-12-10T12:57:41;95795.84;;;10.19;47.56
21185;BME280;18176;49.502;11.754;2022-12-10T13:01:52;95797.78;;;10.02;48.14
21185;BME280;18176;49.502;11.754;2022-12-10T13:05:54;95795.06;;;10.23;48.42
21185;BME280;18176;49.502;11.754;2022-12-10T13:10:25;95804.97;;;10.06;48.50
21185;BME280;18176;49.502;11.754;2022-12-10T13:14:33;95790.28;;;9.57;49.14
21185;BME280;18176;49.502;11.754;2022-12-10T13:18:38;95779.22;;;9.60;49.20
21185;BME280;18176;49.502;11.754;2022-12-10T13:22:54;95811.47;;;9.88;48.91
21185;BME280;18176;49.502;11.754;2022-12-10T13:27:17;95844.88;;;9.68;49.30
21185;BME280;18176;49.502;11.754;2022-12-10T13:31:37;95849.88;;;9.64;49.50
21185;BME280;18176;49.502;11.754;2022-12-10T13:35:49;95777.88;;;9.04;49.50
21185;BME280;18176;49.502;11.754;2022-12-10T13:40:01;95808.22;;;9.01;49.88
21185;BME280;18176;49.502;11.754;2022-12-10T13:44:35;95879.19;;;9.63;49.18
21185;BME280;18176;49.502;11.754;2022-12-10T13:48:38;95872.22;;;9.52;49.47
21185;BME280;18176;49.502;11.754;2022-12-10T13:52:52;95880.09;;;10.00;48.59
21185;BME280;18176;49.502;11.754;2022-12-10T13:57:10;95855.63;;;9.88;48.29
21185;BME280;18176;49.502;11.754;2022-12-10T14:01:32;95897.34;;;10.08;47.94
21185;BME280;18176;49.502;11.754;2022-12-10T14:06:02;95894.94;;;10.06;47.66
21185;BME280;18176;49.502;11.754;2022-12-10T14:10:16;95884.47;;;9.63;48.77
21185;BME280;18176;49.502;11.754;2022-12-10T14:14:25;95894.63;;;9.71;48.73
21185;BME280;18176;49.502;11.754;2022-12-10T14:18:30;95911.72;;;9.90;48.37
21185;BME280;18176;49.502;11.754;2022-12-10T14:22:34;95812.97;;;8.99;48.60
21185;BME280;18176;49.502;11.754;2022-12-10T14:26:37;95814.19;;;8.92;49.12
21185;BME280;18176;49.502;11.754;2022-12-10T14:30:44;95878.63;;;9.34;49.15
21185;BME280;18176;49.502;11.754;2022-12-10T14:34:56;95819.50;;;8.75;49.76
21185;BME280;18176;49.502;11.754;2022-12-10T14:39:00;95818.91;;;8.68;49.55
21185;BME280;18176;49.502;11.754;2022-12-10T14:43:06;95921.53;;;9.19;49.95
21185;BME280;18176;49.502;11.754;2022-12-10T14:47:14;95925.03;;;9.25;50.54
21185;BME280;18176;49.502;11.754;2022-12-10T14:51:21;95837.03;;;8.81;49.70
21185;BME280;18176;49.502;11.754;2022-12-10T14:55:23;95901.47;;;9.24;50.21
21185;BME280;18176;49.502;11.754;2022-12-10T14:59:31;95933.81;;;9.31;50.10
21185;BME280;18176;49.502;11.754;2022-12-10T15:03:43;95935.44;;;9.32;50.04
21185;BME280;18176;49.502;11.754;2022-12-10T15:07:52;95930.06;;;9.27;49.96
21185;BME280;18176;49.502;11.754;2022-12-10T15:11:54;95936.09;;;9.22;50.27
21185;BME280;18176;49.502;11.754;2022-12-10T15:15:55;95932.34;;;9.40;49.50
21185;BME280;18176;49.502;11.754;2022-12-10T15:19:56;95949.69;;;9.31;49.72
21185;BME280;18176;49.502;11.754;2022-12-10T15:24:18;95931.19;;;9.09;49.86
21185;BME280;18176;49.502;11.754;2022-12-10T15:28:27;95949.59;;;9.26;50.09
21185;BME280;18176;49.502;11.754;2022-12-10T15:32:28;95930.00;;;9.22;49.71
21185;BME280;18176;49.502;11.754;2022-12-10T15:36:36;95927.81;;;9.13;50.04
21185;BME280;18176;49.502;11.754;2022-12-10T15:40:40;95960.47;;;9.07;51.01
21185;BME280;18176;49.502;11.754;2022-12-10T15:44:45;95954.22;;;9.13;50.90
21185;BME280;18176;49.502;11.754;2022-12-10T15:48:45;95966.38;;;9.14;50.65
21185;BME280;18176;49.502;11.754;2022-12-10T15:52:47;95968.47;;;9.12;50.98
21185;BME280;18176;49.502;11.754;2022-12-10T15:56:50;95897.31;;;8.18;51.62
21185;BME280;18176;49.502;11.754;2022-12-10T16:00:50;95952.84;;;8.73;51.02
21185;BME280;18176;49.502;11.754;2022-12-10T16:04:50;95947.41;;;8.29;51.59
21185;BME280;18176;49.502;11.754;2022-12-10T16:08:51;95983.41;;;8.85;50.88
21185;BME280;18176;49.502;11.754;2022-12-10T16:13:00;95983.75;;;8.72;51.15
21185;BME280;18176;49.502;11.754;2022-12-10T16:17:01;95981.50;;;8.64;51.42
21185;BME280;18176;49.502;11.754;2022-12-10T16:21:02;95971.59;;;8.38;51.48
21185;BME280;18176;49.502;11.754;2022-12-10T16:25:03;95971.19;;;8.46;51.69
21185;BME280;18176;49.502;11.754;2022-12-10T16:29:09;95988.88;;;8.62;51.12
21185;BME280;18176;49.502;11.754;2022-12-10T16:33:09;95961.66;;;8.62;50.56
21185;BME280;18176;49.502;11.754;2022-12-10T16:37:10;95960.28;;;8.26;51.12
21185;BME280;18176;49.502;11.754;2022-12-10T16:41:16;95994.19;;;8.34;50.92
21185;BME280;18176;49.502;11.754;2022-12-10T16:45:24;95988.91;;;8.34;49.80
21185;BME280;18176;49.502;11.754;2022-12-10T16:49:26;96005.59;;;8.23;49.10
21185;BME280;18176;49.502;11.754;2022-12-10T16:53:29;96010.06;;;8.22;49.16
21185;BME280;18176;49.502;11.754;2022-12-10T16:57:33;96009.75;;;8.19;49.17
21185;BME280;18176;49.502;11.754;2022-12-10T17:01:36;95999.97;;;8.03;48.96
21185;BME280;18176;49.502;11.754;2022-12-10T17:05:40;96010.88;;;8.23;48.26
21185;BME280;18176;49.502;11.754;2022-12-10T17:09:41;96000.41;;;8.00;47.89
21185;BME280;18176;49.502;11.754;2022-12-10T17:13:44;96036.94;;;8.19;48.00
21185;BME280;18176;49.502;11.754;2022-12-10T17:17:47;96010.16;;;7.99;47.62
21185;BME280;18176;49.502;11.754;2022-12-10T17:21:48;96023.44;;;8.04;47.75
21185;BME280;18176;49.502;11.754;2022-12-10T17:25:49;96014.31;;;7.55;46.59
21185;BME280;18176;49.502;11.754;2022-12-10T17:29:50;96008.03;;;7.45;46.35
21185;BME280;18176;49.502;11.754;2022-12-10T17:33:56;96024.88;;;7.44;46.19
21185;BME280;18176;49.502;11.754;2022-12-10T17:37:57;96056.03;;;7.58;46.35
21185;BME280;18176;49.502;11.754;2022-12-10T17:41:57;96060.09;;;7.89;46.19
21185;BME280;18176;49.502;11.754;2022-12-10T17:45:59;96065.75;;;8.09;45.92
21185;BME280;18176;49.502;11.754;2022-12-10T17:50:03;96040.25;;;7.87;46.15
21185;BME280;18176;49.502;11.754;2022-12-10T17:54:05;96048.28;;;7.92;46.44
21185;BME280;18176;49.502;11.754;2022-12-10T17:58:05;96067.13;;;8.12;46.69
21185;BME280;18176;49.502;11.754;2022-12-10T18:02:07;96063.72;;;8.00;46.53
21185;BME280;18176;49.502;11.754;2022-12-10T18:06:15;96078.31;;;7.91;46.48
21185;BME280;18176;49.502;11.754;2022-12-10T18:10:20;96078.94;;;8.09;46.20
21185;BME280;18176;49.502;11.754;2022-12-10T18:14:20;96075.69;;;7.91;45.74
21185;BME280;18176;49.502;11.754;2022-12-10T18:18:21;96075.81;;;7.84;46.01
21185;BME280;18176;49.502;11.754;2022-12-10T18:22:24;96074.72;;;7.97;45.92
21185;BME280;18176;49.502;11.754;2022-12-10T18:26:25;96083.84;;;7.89;45.97
21185;BME280;18176;49.502;11.754;2022-12-10T18:30:26;96088.75;;;7.86;45.88
21185;BME280;18176;49.502;11.754;2022-12-10T18:34:28;96081.41;;;7.88;45.64
21185;BME280;18176;49.502;11.754;2022-12-10T18:38:31;96051.13;;;7.50;46.08
21185;BME280;18176;49.502;11.754;2022-12-10T18:42:31;96097.03;;;7.77;46.29
21185;BME280;18176;49.502;11.754;2022-12-10T18:46:33;96077.34;;;7.68;46.12
21185;BME280;18176;49.502;11.754;2022-12-10T18:50:36;96078.13;;;7.69;45.96
21185;BME280;18176;49.502;11.754;2022-12-10T18:54:39;96105.06;;;7.83;46.11
21185;BME280;18176;49.502;11.754;2022-12-10T18:58:39;96113.88;;;7.88;46.23
21185;BME280;18176;49.502;11.754;2022-12-10T19:02:39;96093.03;;;7.75;45.99
21185;BME280;18176;49.502;11.754;2022-12-10T19:06:40;96103.31;;;7.88;46.10
21185;BME280;18176;49.502;11.754;2022-12-10T19:10:43;96101.84;;;7.80;46.48
21185;BME280;18176;49.502;11.754;2022-12-10T19:14:44;96103.91;;;7.78;46.77
21185;BME280;18176;49.502;11.754;2022-12-10T19:18:45;96099.69;;;7.66;47.48
21185;BME280;18176;49.502;11.754;2022-12-10T19:22:45;96091.25;;;7.52;48.23
21185;BME280;18176;49.502;11.754;2022-12-10T19:26:48;96086.66;;;7.48;48.76
21185;BME280;18176;49.502;11.754;2022-12-10T19:30:49;96100.97;;;7.63;49.12
21185;BME280;18176;49.502;11.754;2022-12-10T19:34:51;96067.84;;;7.44;49.50
21185;BME280;18176;49.502;11.754;2022-12-10T19:38:52;96102.53;;;7.64;49.60
21185;BME280;18176;49.502;11.754;2022-12-10T19:42:55;96102.34;;;7.54;49.75
21185;BME280;18176;49.502;11.754;2022-12-10T19:46:56;96076.81;;;7.43;49.78
21185;BME280;18176;49.502;11.754;2022-12-10T19:50:57;96088.72;;;7.57;49.72
21185;BME280;18176;49.502;11.754;2022-12-10T19:54:57;96059.25;;;7.37;49.71
21185;BME280;18176;49.502;11.754;2022-12-10T19:59:02;96057.69;;;7.13;50.45
21185;BME280;18176;49.502;11.754;2022-12-10T20:03:10;96057.22;;;6.93;50.34
21185;BME280;18176;49.502;11.754;2022-12-10T20:07:11;96099.59;;;7.26;50.29
21185;BME280;18176;49.502;11.754;2022-12-10T20:11:12;96087.47;;;7.25;50.33
21185;BME280;18176;49.502;11.754;2022-12-10T20:15:15;96105.53;;;7.10;50.25
21185;BME280;18176;49.502;11.754;2022-12-10T20:19:19;96115.06;;;7.11;50.36
21185;BME280;18176;49.502;11.754;2022-12-10T20:23:19;96115.72;;;6.83;50.67
21185;BME280;18176;49.502;11.754;2022-12-10T20:27:19;96097.81;;;6.74;50.64
21185;BME280;18176;49.502;11.754;2022-12-10T20:31:22;96068.38;;;6.54;50.54
21185;BME280;18176;49.502;11.754;2022-12-10T20:35:23;96123.81;;;6.82;51.06
21185;BME280;18176;49.502;11.754;2022-12-10T20:39:31;96124.06;;;6.92;51.16
21185;BME280;18176;49.502;11.754;2022-12-10T20:43:31;96115.34;;;6.80;51.45
21185;BME280;18176;49.502;11.754;2022-12-10T20:47:34;96114.59;;;6.61;51.70
21185;BME280;18176;49.502;11.754;2022-12-10T20:51:36;96110.78;;;6.46;52.29
21185;BME280;18176;49.502;11.754;2022-12-10T20:55:36;96115.03;;;6.47;52.37
21185;BME280;18176;49.502;11.754;2022-12-10T20:59:37;96115.47;;;6.44;52.30
21185;BME280;18176;49.502;11.754;2022-12-10T21:03:40;96108.78;;;6.29;52.58
21185;BME280;18176;49.502;11.754;2022-12-10T21:07:41;96092.38;;;6.16;52.54
21185;BME280;18176;49.502;11.754;2022-12-10T21:11:42;96111.06;;;6.08;52.76
21185;BME280;18176;49.502;11.754;2022-12-10T21:15:43;96101.53;;;5.95;52.90
21185;BME280;18176;49.502;11.754;2022-12-10T21:19:46;96102.59;;;6.06;52.91
21185;BME280;18176;49.502;11.754;2022-12-10T21:23:47;96112.47;;;5.92;53.23
21185;BME280;18176;49.502;11.754;2022-12-10T21:27:47;96121.97;;;5.75;53.71
21185;BME280;18176;49.502;11.754;2022-12-10T21:31:47;96104.16;;;5.59;53.98
21185;BME280;18176;49.502;11.754;2022-12-10T21:35:50;96111.56;;;5.62;54.31
21185;BME280;18176;49.502;11.754;2022-12-10T21:39:51;96118.97;;;5.90;53.57